Time;durP1;ratioP1;P1;durP2;ratioP2;P2;SDS_P1;SDS_P2;PMS_P1;PMS_P2;Temp;Humidity;BMP_temperature;BMP_pressure;BME280_temperature;BME280_humidity;BME280_pressure;Samples;Min_cycle;Max_cycle;Signal;HPM_P1;HPM_P2
2021/01/03 00:01:51;;;;;;;7.18;4.70;;;;;;;2.37;75.32;97239.06;4940967;28;45369;-76
2021/01/03 00:04:16;;;;;;;7.40;4.50;;;;;;;2.43;76.19;97253.47;4940867;28;45413;-76
2021/01/03 00:06:42;;;;;;;7.75;4.90;;;;;;;2.36;76.17;97247.09;4940896;28;45482;-75
2021/01/03 00:09:08;;;;;;;9.13;5.43;;;;;;;2.36;75.39;97247.91;4940663;28;45400;-75
2021/01/03 00:11:35;;;;;;;7.75;5.13;;;;;;;2.18;76.30;97243.25;4940971;28;45414;-77
2021/01/03 00:14:00;;;;;;;8.93;5.30;;;;;;;2.31;75.47;97239.59;4939299;28;47876;-76
2021/01/03 00:16:26;;;;;;;7.90;5.15;;;;;;;2.35;76.23;97248.03;4941011;28;45344;-76
2021/01/03 00:18:51;;;;;;;14.25;7.03;;;;;;;2.38;76.65;97248.59;4939560;28;45378;-76
2021/01/03 00:21:17;;;;;;;13.10;6.40;;;;;;;2.26;76.59;97237.38;4940897;28;45499;-76
2021/01/03 00:23:42;;;;;;;6.95;4.93;;;;;;;2.01;77.67;97244.63;4938469;28;48064;-75
2021/01/03 00:26:07;;;;;;;7.28;5.05;;;;;;;2.24;76.69;97241.91;4940405;28;45299;-75
2021/01/03 00:28:33;;;;;;;7.65;5.15;;;;;;;2.34;76.46;97247.19;4940709;28;45348;-76
2021/01/03 00:30:58;;;;;;;6.57;4.60;;;;;;;2.22;76.64;97241.22;4940670;28;45163;-76
2021/01/03 00:33:24;;;;;;;7.85;4.45;;;;;;;2.31;75.67;97240.44;4940473;28;45660;-76
2021/01/03 00:35:50;;;;;;;7.63;5.07;;;;;;;2.37;75.09;97246.94;4940619;28;45288;-76
2021/01/03 00:38:16;;;;;;;7.90;5.35;;;;;;;2.39;75.00;97239.78;4923208;28;45340;-76
2021/01/03 00:40:42;;;;;;;9.13;5.35;;;;;;;2.36;75.16;97228.72;4939079;28;45648;-76
2021/01/03 00:43:10;;;;;;;7.78;5.20;;;;;;;2.32;75.10;97236.84;4940218;28;45567;-77
2021/01/03 00:45:36;;;;;;;7.43;4.78;;;;;;;2.38;75.44;97234.66;4940444;28;45230;-76
2021/01/03 00:48:02;;;;;;;6.38;4.47;;;;;;;2.37;75.56;97240.88;4940228;28;45221;-75
2021/01/03 00:50:27;;;;;;;7.93;5.10;;;;;;;2.39;76.05;97239.78;4938961;28;45489;-76
2021/01/03 00:52:53;;;;;;;7.35;4.90;;;;;;;2.35;74.98;97237.56;4939952;28;45435;-75
2021/01/03 00:55:19;;;;;;;6.53;4.80;;;;;;;2.33;74.13;97233.25;4922820;28;45458;-75
2021/01/03 00:57:45;;;;;;;7.70;4.78;;;;;;;2.22;76.05;97243.84;4938893;28;45293;-76
2021/01/03 01:00:24;;;;;;;7.35;4.93;;;;;;;2.30;74.84;97238.78;4940102;28;45550;-75
2021/01/03 01:02:50;;;;;;;8.30;4.90;;;;;;;2.21;75.21;97241.31;4939956;28;45637;-76
2021/01/03 01:05:16;;;;;;;7.65;4.63;;;;;;;2.21;75.51;97236.91;4940087;28;45233;-76
2021/01/03 01:07:42;;;;;;;7.40;4.57;;;;;;;2.10;76.92;97242.19;4922822;28;45362;-76
2021/01/03 01:10:11;;;;;;;5.90;4.25;;;;;;;2.23;76.04;97248.13;4939885;28;45286;-75
2021/01/03 01:12:37;;;;;;;5.95;3.92;;;;;;;2.12;77.29;97237.66;4939634;28;45586;-75
2021/01/03 01:15:08;;;;;;;6.05;4.00;;;;;;;2.08;78.09;97238.88;4939985;28;45407;-75
2021/01/03 01:17:34;;;;;;;6.88;4.53;;;;;;;2.16;78.68;97233.81;4928000;28;45214;-75
2021/01/03 01:19:59;;;;;;;6.47;4.07;;;;;;;2.06;79.23;97238.16;4939921;28;45533;-75
2021/01/03 01:22:24;;;;;;;6.05;4.38;;;;;;;2.28;78.90;97240.69;4940057;28;45490;-75
2021/01/03 01:24:50;;;;;;;11.85;6.95;;;;;;;1.96;80.84;97249.41;4938249;28;45884;-75
2021/01/03 01:27:15;;;;;;;13.70;8.35;;;;;;;1.80;83.48;97244.63;4938477;28;45358;-75
2021/01/03 01:29:41;;;;;;;13.85;8.93;;;;;;;1.98;81.61;97244.88;4939853;28;45311;-76
2021/01/03 01:32:06;;;;;;;6.97;4.90;;;;;;;2.22;78.00;97249.06;4939858;28;45348;-76
2021/01/03 01:34:32;;;;;;;6.53;4.40;;;;;;;2.32;77.32;97252.59;4939643;28;45264;-75
2021/01/03 01:36:58;;;;;;;8.18;4.43;;;;;;;1.92;76.30;97253.25;4938443;28;45344;-75
2021/01/03 01:39:23;;;;;;;7.47;4.55;;;;;;;2.16;76.43;97253.03;4939334;28;45619;-75
2021/01/03 01:41:48;;;;;;;6.13;4.03;;;;;;;2.27;75.65;97256.53;4938347;28;47467;-76
2021/01/03 01:44:14;;;;;;;5.72;4.60;;;;;;;2.09;76.87;97256.28;4939420;28;45406;-76
2021/01/03 01:46:51;;;;;;;5.95;4.18;;;;;;;2.23;77.03;97258.59;4938584;28;45493;-76
2021/01/03 01:49:17;;;;;;;6.30;4.25;;;;;;;2.26;77.39;97254.88;4939230;28;45496;-76
2021/01/03 01:51:49;;;;;;;5.18;3.70;;;;;;;2.03;79.60;97265.50;4939444;28;46483;-76
2021/01/03 01:54:22;;;;;;;9.82;5.60;;;;;;;1.97;81.37;97260.75;4939153;28;45574;-76
2021/01/03 01:56:56;;;;;;;21.17;12.85;;;;;;;1.91;83.78;97262.06;4939707;28;45319;-75
2021/01/03 01:59:27;;;;;;;18.77;11.57;;;;;;;2.03;82.61;97268.13;4937752;28;45505;-75
2021/01/03 02:02:01;;;;;;;20.65;12.63;;;;;;;2.14;82.36;97259.34;4937747;28;48189;-75
2021/01/03 02:04:34;;;;;;;18.23;10.90;;;;;;;2.17;82.26;97259.94;4921960;28;45320;-76
2021/01/03 02:07:32;;;;;;;16.27;10.32;;;;;;;1.50;86.64;97259.22;4921892;28;45339;-75
2021/01/03 02:10:16;;;;;;;17.90;11.18;;;;;;;1.71;86.19;97258.44;4939154;28;45201;-75
2021/01/03 02:12:46;;;;;;;15.05;10.35;;;;;;;1.80;84.85;97259.50;4926987;28;45208;-75
2021/01/03 02:15:33;;;;;;;17.23;10.63;;;;;;;1.54;85.64;97262.44;4939230;28;45327;-75
2021/01/03 02:18:03;;;;;;;12.57;7.75;;;;;;;1.61;85.57;97263.63;4922009;28;45318;-75
2021/01/03 02:20:35;;;;;;;13.03;7.93;;;;;;;1.87;84.73;97264.13;4939144;28;45177;-75
2021/01/03 02:23:06;;;;;;;16.15;9.77;;;;;;;1.74;85.14;97261.66;4921719;28;48062;-75
2021/01/03 02:25:31;;;;;;;16.25;8.60;;;;;;;1.48;86.68;97255.09;4926136;28;45374;-75
2021/01/03 02:28:19;;;;;;;17.48;10.27;;;;;;;1.73;86.59;97260.00;4938848;28;45418;-76
2021/01/03 02:30:49;;;;;;;15.52;9.63;;;;;;;1.35;87.80;97258.69;4938973;28;45352;-75
2021/01/03 02:33:24;;;;;;;14.93;8.52;;;;;;;1.38;87.23;97258.44;4938767;28;45993;-75
2021/01/03 02:35:58;;;;;;;15.93;9.18;;;;;;;1.36;86.90;97262.97;4939102;28;45258;-75
2021/01/03 02:38:26;;;;;;;13.02;8.73;;;;;;;1.58;85.58;97259.44;4938816;28;45296;-75
2021/01/03 02:40:51;;;;;;;14.38;9.23;;;;;;;1.86;84.28;97267.72;4938533;28;45332;-76
2021/01/03 02:43:17;;;;;;;13.20;8.55;;;;;;;1.96;84.05;97265.16;4938889;28;46045;-75
2021/01/03 02:45:43;;;;;;;14.32;8.40;;;;;;;1.57;86.33;97264.81;4939387;28;45415;-75
2021/01/03 02:48:14;;;;;;;13.82;8.40;;;;;;;1.74;85.39;97268.69;4942084;28;45570;-75
2021/01/03 02:50:39;;;;;;;14.23;8.18;;;;;;;1.62;85.08;97265.28;4941891;28;45510;-75
2021/01/03 02:53:05;;;;;;;11.50;7.82;;;;;;;1.62;85.10;97267.91;4941816;28;45216;-75
2021/01/03 02:55:30;;;;;;;11.32;7.55;;;;;;;1.79;85.16;97260.47;4941907;28;45339;-75
2021/01/03 02:57:56;;;;;;;12.68;8.40;;;;;;;1.62;86.83;97267.06;4941841;28;45460;-75
2021/01/03 03:00:28;;;;;;;12.77;8.48;;;;;;;1.85;85.39;97266.06;4940534;28;45334;-75
2021/01/03 03:02:53;;;;;;;14.98;9.80;;;;;;;1.57;87.51;97270.06;4941818;28;45352;-75
2021/01/03 03:05:20;;;;;;;13.45;8.75;;;;;;;1.44;88.02;97265.81;4941805;28;45424;-75
2021/01/03 03:07:46;;;;;;;14.63;8.90;;;;;;;1.57;87.84;97267.44;4942135;28;45312;-75
2021/01/03 03:10:13;;;;;;;14.63;9.13;;;;;;;1.75;87.26;97262.47;4940383;28;45524;-75
2021/01/03 03:12:39;;;;;;;14.85;9.32;;;;;;;1.63;88.23;97258.25;4928889;28;46108;-75
2021/01/03 03:15:10;;;;;;;15.18;9.55;;;;;;;1.42;89.52;97269.50;4941873;28;45347;-76
2021/01/03 03:17:36;;;;;;;15.40;9.60;;;;;;;1.36;90.42;97260.34;4942046;28;45370;-75
2021/01/03 03:20:04;;;;;;;15.43;9.38;;;;;;;1.64;87.77;97260.75;4941801;28;45416;-75
2021/01/03 03:22:29;;;;;;;12.38;8.63;;;;;;;1.82;86.14;97262.84;4941663;28;45432;-75
2021/01/03 03:24:54;;;;;;;13.50;8.13;;;;;;;1.43;87.45;97263.31;4941258;28;45339;-75
2021/01/03 03:27:20;;;;;;;13.95;8.63;;;;;;;1.71;87.14;97264.53;4941685;28;45429;-75
2021/01/03 03:29:45;;;;;;;14.60;8.93;;;;;;;1.39;90.05;97262.72;4940191;28;45477;-75
2021/01/03 03:32:11;;;;;;;14.75;9.02;;;;;;;1.48;89.94;97262.94;4941541;28;46097;-75
2021/01/03 03:34:36;;;;;;;12.48;8.35;;;;;;;1.79;87.01;97265.72;4941535;28;45417;-75
2021/01/03 03:37:02;;;;;;;14.15;8.60;;;;;;;1.62;87.04;97259.19;4924416;28;45441;-75
2021/01/03 03:39:27;;;;;;;13.13;8.05;;;;;;;1.68;87.47;97251.69;4941251;28;45291;-75
2021/01/03 03:41:57;;;;;;;16.08;9.32;;;;;;;1.51;89.99;97254.84;4941367;28;46223;-75
2021/01/03 03:44:24;;;;;;;15.30;9.70;;;;;;;1.53;89.44;97258.97;4941217;28;45567;-75
2021/01/03 03:46:54;;;;;;;13.65;8.98;;;;;;;1.40;89.43;97256.53;4941634;28;45510;-75
2021/01/03 03:49:20;;;;;;;12.65;7.70;;;;;;;1.53;87.48;97256.38;4940927;28;45415;-75
2021/01/03 03:51:46;;;;;;;13.65;8.38;;;;;;;1.73;87.61;97260.00;4941157;28;46152;-75
2021/01/03 03:54:11;;;;;;;14.65;9.30;;;;;;;1.75;87.71;97265.97;4923478;28;45381;-75
2021/01/03 03:56:37;;;;;;;12.82;8.50;;;;;;;1.58;89.42;97261.25;4941025;28;45410;-75
2021/01/03 03:59:02;;;;;;;16.27;9.75;;;;;;;1.30;91.45;97259.03;4938815;28;45581;-75
2021/01/03 04:01:36;;;;;;;13.00;9.05;;;;;;;1.24;92.83;97266.53;4940865;28;46115;-75
2021/01/03 04:04:02;;;;;;;16.05;8.98;;;;;;;1.40;91.52;97261.78;4941024;28;45336;-75
2021/01/03 04:06:27;;;;;;;15.23;9.45;;;;;;;1.40;91.52;97261.78;4939762;28;45331;-75
2021/01/03 04:08:53;;;;;;;14.88;9.75;;;;;;;1.55;89.78;97258.88;4940750;28;45394;-75
2021/01/03 04:11:18;;;;;;;13.50;8.68;;;;;;;1.71;88.66;97264.53;4940924;28;45995;-75
2021/01/03 04:13:44;;;;;;;13.07;8.57;;;;;;;1.75;88.17;97267.72;4923403;28;45360;-75
2021/01/03 04:16:09;;;;;;;17.02;9.77;;;;;;;1.72;88.63;97263.59;4941240;28;45271;-75
2021/01/03 04:18:35;;;;;;;14.77;9.20;;;;;;;1.73;88.78;97267.88;4940732;28;45520;-75
2021/01/03 04:21:00;;;;;;;14.88;9.40;;;;;;;1.40;90.96;97271.41;4939676;28;47261;-75
2021/01/03 04:23:25;;;;;;;15.32;9.50;;;;;;;1.13;93.04;97275.25;4940611;28;45495;-75
2021/01/03 04:25:51;;;;;;;14.65;9.40;;;;;;;1.29;91.71;97273.09;4940674;28;45335;-75
2021/01/03 04:28:16;;;;;;;15.52;9.48;;;;;;;1.21;92.22;97267.63;4940585;28;45504;-75
2021/01/03 04:30:43;;;;;;;16.05;10.07;;;;;;;0.89;93.07;97275.38;4940663;28;45425;-75
2021/01/03 04:33:09;;;;;;;16.58;9.98;;;;;;;0.83;94.23;97271.44;4923212;28;45456;-75
2021/01/03 04:35:34;;;;;;;14.43;9.13;;;;;;;0.83;94.42;97274.06;4940886;28;45264;-75
2021/01/03 04:37:59;;;;;;;15.80;9.35;;;;;;;0.85;95.02;97275.63;4939261;28;45238;-75
2021/01/03 04:40:29;;;;;;;13.63;8.68;;;;;;;1.24;93.06;97271.78;4938867;28;47960;-75
2021/01/03 04:42:58;;;;;;;18.47;9.87;;;;;;;1.02;93.80;97278.72;4939024;28;45591;-75
2021/01/03 04:45:30;;;;;;;14.13;9.65;;;;;;;1.30;93.07;97276.53;4939326;28;45229;-75
2021/01/03 04:48:00;;;;;;;15.85;9.38;;;;;;;1.54;91.16;97279.00;4938920;28;45214;-75
2021/01/03 04:50:58;;;;;;;16.30;9.63;;;;;;;1.04;92.85;97271.56;4940285;28;45977;-75
2021/01/03 04:53:43;;;;;;;18.88;10.75;;;;;;;0.63;95.73;97270.38;4934250;28;45276;-75
2021/01/03 04:56:46;;;;;;;18.63;12.00;;;;;;;1.05;95.71;97273.22;4958948;28;45415;-75
2021/01/03 04:59:14;;;;;;;17.60;10.65;;;;;;;1.26;93.72;97277.72;4914534;28;45621;-75
2021/01/03 05:01:55;;;;;;;17.75;10.10;;;;;;;1.05;94.04;97278.47;4938643;28;48251;-75
2021/01/03 05:04:39;;;;;;;;;;;;;;;0.96;93.80;97285.28;4940575;28;45347;-75
2021/01/03 05:07:33;;;;;;;16.33;9.73;;;;;;;1.21;93.36;97285.97;4939959;28;45583;-75
2021/01/03 05:10:21;;;;;;;18.33;10.93;;;;;;;1.37;91.94;97280.34;4939034;28;45288;-75
2021/01/03 05:13:14;;;;;;;15.30;9.75;;;;;;;0.75;94.46;97285.13;4928785;28;45420;-75
2021/01/03 05:15:39;;;;;;;15.93;9.70;;;;;;;0.93;95.39;97289.91;4922533;28;45703;-75
2021/01/03 05:18:06;;;;;;;17.00;9.73;;;;;;;1.19;93.96;97290.50;4940249;28;45213;-75
2021/01/03 05:20:32;;;;;;;16.35;10.25;;;;;;;0.85;93.87;97301.81;4939826;28;45409;-75
2021/01/03 05:23:14;;;;;;;15.63;9.80;;;;;;;0.69;96.00;97303.94;4940014;28;45339;-75
2021/01/03 05:25:41;;;;;;;15.82;9.63;;;;;;;0.73;96.10;97300.13;4928209;28;45297;-75
2021/01/03 05:28:12;;;;;;;18.27;10.52;;;;;;;0.64;97.08;97299.03;4922338;28;45502;-75
2021/01/03 05:30:37;;;;;;;17.15;10.48;;;;;;;0.69;97.25;97303.94;4939987;28;45284;-75
2021/01/03 05:33:10;;;;;;;17.27;10.25;;;;;;;0.81;97.20;97310.00;4939678;28;45273;-75
2021/01/03 05:35:41;;;;;;;15.43;9.68;;;;;;;1.09;94.41;97300.03;4939791;28;45387;-75
2021/01/03 05:38:08;;;;;;;15.32;10.07;;;;;;;0.84;94.84;97317.59;4939660;28;45416;-75
2021/01/03 05:40:39;;;;;;;17.40;10.32;;;;;;;0.68;96.11;97313.56;4939582;28;45307;-76
2021/01/03 05:43:23;;;;;;;15.80;9.75;;;;;;;0.48;97.10;97315.06;4938058;28;48402;-75
2021/01/03 05:45:54;;;;;;;17.58;9.80;;;;;;;0.65;96.34;97310.34;4939517;28;45291;-75
2021/01/03 05:48:24;;;;;;;17.30;10.35;;;;;;;0.89;95.72;97319.88;4938436;28;45355;-75
2021/01/03 05:50:50;;;;;;;15.68;9.15;;;;;;;1.09;94.63;97311.31;4939422;28;45284;-75
2021/01/03 05:53:25;;;;;;;16.48;9.65;;;;;;;1.01;93.01;97316.31;4939309;28;45358;-75
2021/01/03 05:56:00;;;;;;;15.70;8.95;;;;;;;0.80;94.31;97324.88;4939090;28;45465;-75
2021/01/03 05:58:27;;;;;;;16.83;9.98;;;;;;;0.54;96.63;97326.84;4939410;28;45397;-75
2021/01/03 06:00:53;;;;;;;15.88;9.55;;;;;;;0.35;96.96;97323.00;4937859;28;45562;-76
2021/01/03 06:03:27;;;;;;;14.13;9.38;;;;;;;0.49;97.03;97323.75;4920387;28;47175;-75
2021/01/03 06:06:08;;;;;;;14.88;9.35;;;;;;;0.75;95.97;97328.78;4942926;28;45345;-75
2021/01/03 06:08:35;;;;;;;;;;;;;;;0.78;95.16;97334.63;4953654;28;45440;-76
2021/01/03 06:11:12;;;;;;;13.65;8.75;;;;;;;0.96;93.86;97344.66;4938453;28;45561;-75
2021/01/03 06:13:58;;;;;;;14.05;9.00;;;;;;;0.60;95.51;97330.81;4937018;28;48009;-75
2021/01/03 06:16:46;;;;;;;14.02;9.52;;;;;;;0.57;95.35;97332.69;4938749;28;45469;-75
2021/01/03 06:19:32;;;;;;;14.60;9.65;;;;;;;0.70;95.47;97344.84;4932118;28;45376;-75
2021/01/03 06:21:57;;;;;;;16.95;10.25;;;;;;;0.56;95.06;97343.25;4934140;28;45312;-75
2021/01/03 06:24:28;;;;;;;15.27;9.55;;;;;;;0.46;96.47;97345.75;4941683;28;45324;-75
2021/01/03 06:27:01;;;;;;;18.25;10.00;;;;;;;0.70;95.78;97344.84;4941929;28;45510;-75
2021/01/03 06:29:31;;;;;;;15.20;9.90;;;;;;;0.50;96.37;97346.34;4942079;28;45418;-75
2021/01/03 06:32:21;;;;;;;14.27;9.57;;;;;;;0.88;94.49;97345.22;4941666;28;45250;-76
2021/01/03 06:34:52;;;;;;;16.13;10.00;;;;;;;0.55;96.57;97345.06;4937425;28;46400;-76
2021/01/03 06:37:33;;;;;;;17.27;9.77;;;;;;;0.93;94.10;97355.34;4937443;28;45300;-75
2021/01/03 06:40:06;;;;;;;15.05;9.88;;;;;;;0.64;95.83;97355.78;4938210;28;45301;-78
2021/01/03 06:42:44;;;;;;;15.60;9.80;;;;;;;0.56;96.55;97356.34;4940583;28;45557;-77
2021/01/03 06:45:38;;;;;;;16.35;9.55;;;;;;;0.60;95.93;97365.63;4938906;28;46519;-76
2021/01/03 06:48:22;;;;;;;14.60;9.82;;;;;;;0.39;97.29;97358.44;4902430;28;46038;-77
2021/01/03 06:51:25;;;;;;;16.23;9.70;;;;;;;0.35;97.21;97357.00;4929563;28;45476;-76
2021/01/03 06:54:14;;;;;;;17.25;10.45;;;;;;;0.42;97.64;97358.22;4940296;28;45386;-75
2021/01/03 06:56:59;;;;;;;16.60;9.98;;;;;;;0.41;97.92;97363.56;4930252;28;46474;-75
2021/01/03 06:59:33;;;;;;;15.25;10.20;;;;;;;0.50;98.48;97364.66;4938388;28;45453;-74
2021/01/03 07:01:59;;;;;;;15.98;10.27;;;;;;;0.71;96.63;97363.03;4940797;28;45516;-76
2021/01/03 07:04:34;;;;;;;21.00;11.93;;;;;;;0.89;96.11;97373.09;4940971;28;45387;-76
2021/01/03 07:07:02;;;;;;;22.50;11.32;;;;;;;0.53;96.11;97370.50;4946252;28;48630;-77
2021/01/03 07:09:28;;;;;;;19.08;11.25;;;;;;;0.40;97.91;97367.97;4923737;28;45597;-76
2021/01/03 07:11:56;;;;;;;18.38;10.98;;;;;;;0.37;98.25;97369.97;4940726;28;45444;-77
2021/01/03 07:14:21;;;;;;;17.65;11.32;;;;;;;0.47;97.95;97376.22;4941068;28;45427;-75
2021/01/03 07:16:54;;;;;;;18.75;11.13;;;;;;;0.62;97.00;97376.81;4940235;28;45936;-76
2021/01/03 07:19:43;;;;;;;16.23;10.75;;;;;;;0.56;97.22;97380.75;4938640;28;45683;-76
2021/01/03 07:22:11;;;;;;;14.85;9.55;;;;;;;0.48;97.15;97384.88;4938801;28;46408;-76
2021/01/03 07:24:51;;;;;;;15.73;10.23;;;;;;;0.51;97.57;97380.25;4936841;28;45501;-74
2021/01/03 07:27:23;;;;;;;17.48;9.77;;;;;;;0.52;97.50;97386.31;4955522;28;47890;-75
2021/01/03 07:29:50;;;;;;;16.17;10.15;;;;;;;0.64;96.07;97385.41;4940589;28;45350;-76
2021/01/03 07:32:17;;;;;;;14.57;9.25;;;;;;;0.76;96.10;97388.88;4941065;28;45472;-75
2021/01/03 07:34:50;;;;;;;16.20;9.63;;;;;;;0.67;96.29;97389.59;4939069;28;45523;-75
2021/01/03 07:37:26;;;;;;;15.55;9.70;;;;;;;0.80;96.59;97389.47;4933831;28;46700;-75
2021/01/03 07:40:06;;;;;;;15.25;9.73;;;;;;;0.40;97.26;97394.13;4928610;28;45445;-76
2021/01/03 07:42:36;;;;;;;17.17;11.13;;;;;;;0.45;97.20;97399.03;4939522;28;45421;-75
2021/01/03 07:45:19;;;;;;;17.13;9.43;;;;;;;0.38;97.41;97397.78;4940941;28;45414;-77
2021/01/03 07:47:51;;;;;;;15.38;9.35;;;;;;;0.19;98.26;97393.91;4940522;28;46185;-75
2021/01/03 07:50:16;;;;;;;15.73;10.00;;;;;;;0.47;98.34;97401.53;4939742;28;45473;-76
2021/01/03 07:52:43;;;;;;;14.90;9.73;;;;;;;0.17;98.15;97401.03;4939657;28;45461;-76
2021/01/03 07:55:23;;;;;;;15.82;9.63;;;;;;;0.34;98.29;97399.81;4940257;28;45584;-76
2021/01/03 07:57:58;;;;;;;16.67;9.27;;;;;;;0.40;97.22;97406.34;4928638;28;45382;-76
2021/01/03 08:00:26;;;;;;;16.55;10.10;;;;;;;0.24;98.25;97404.88;4939033;28;45561;-80
2021/01/03 08:02:58;;;;;;;18.23;10.10;;;;;;;0.33;98.40;97411.22;4940128;28;45774;-79
2021/01/03 08:05:24;;;;;;;14.65;9.18;;;;;;;0.39;98.37;97413.38;4940272;28;45486;-78
2021/01/03 08:07:50;;;;;;;15.32;9.60;;;;;;;0.16;98.53;97407.19;4941817;28;46304;-78
2021/01/03 08:10:17;;;;;;;15.77;9.93;;;;;;;0.27;99.01;97406.44;4938328;28;45486;-77
2021/01/03 08:12:53;;;;;;;17.98;9.90;;;;;;;0.70;97.77;97411.09;4938788;28;45359;-78
2021/01/03 08:15:28;;;;;;;15.88;9.32;;;;;;;0.45;96.79;97414.72;4938942;28;45375;-77
2021/01/03 08:18:06;;;;;;;15.10;8.95;;;;;;;0.52;96.28;97409.88;4939153;28;46466;-78
2021/01/03 08:20:32;;;;;;;16.70;10.48;;;;;;;0.89;95.92;97407.13;4939019;28;45841;-78
2021/01/03 08:23:16;;;;;;;16.70;10.40;;;;;;;0.73;96.36;97412.69;4939623;28;45585;-78
2021/01/03 08:25:41;;;;;;;16.33;9.95;;;;;;;0.51;97.43;97409.03;4938114;28;45506;-78
2021/01/03 08:28:22;;;;;;;16.02;10.70;;;;;;;0.50;98.21;97410.00;4921303;28;47737;-78
2021/01/03 08:30:50;;;;;;;15.40;10.00;;;;;;;0.56;98.20;97412.16;4938919;28;45411;-78
2021/01/03 08:33:18;;;;;;;16.58;10.50;;;;;;;0.46;97.69;97407.69;4938292;28;45516;-79
2021/01/03 08:35:43;;;;;;;14.90;9.32;;;;;;;0.73;97.21;97410.06;4938589;28;45584;-78
2021/01/03 08:38:10;;;;;;;17.40;9.80;;;;;;;0.57;97.15;97413.81;4920978;28;47806;-79
2021/01/03 08:40:42;;;;;;;15.77;9.68;;;;;;;0.48;97.58;97413.66;4933057;28;45464;-79
2021/01/03 08:43:19;;;;;;;13.40;9.43;;;;;;;0.63;97.58;97416.94;4936464;28;45481;-79
2021/01/03 08:45:47;;;;;;;12.77;8.60;;;;;;;0.43;98.22;97413.97;4938438;28;46514;-79
2021/01/03 08:48:21;;;;;;;14.88;9.55;;;;;;;0.38;98.27;97418.72;4938928;28;46069;-78
2021/01/03 08:50:46;;;;;;;13.43;7.90;;;;;;;0.47;98.72;97418.06;4939044;28;45444;-78
2021/01/03 08:53:24;;;;;;;13.38;8.65;;;;;;;0.58;97.91;97420.72;4939394;28;45399;-78
2021/01/03 08:55:50;;;;;;;15.13;9.38;;;;;;;0.54;98.68;97421.91;4963349;28;45419;-79
2021/01/03 08:58:19;;;;;;;18.13;10.88;;;;;;;0.49;98.25;97426.63;4939147;28;46166;-79
2021/01/03 09:00:48;;;;;;;15.68;10.30;;;;;;;0.58;98.28;97428.56;4939480;28;45491;-79
2021/01/03 09:03:19;;;;;;;15.23;9.93;;;;;;;0.67;98.53;97427.03;4939646;28;45355;-80
2021/01/03 09:05:47;;;;;;;16.25;9.77;;;;;;;0.40;97.90;97429.91;4939678;28;45395;-78
2021/01/03 09:08:18;;;;;;;15.82;9.60;;;;;;;0.30;97.69;97427.13;4922034;28;47303;-80
2021/01/03 09:10:44;;;;;;;16.27;10.35;;;;;;;0.53;97.89;97441.16;4939185;28;45323;-80
2021/01/03 09:13:23;;;;;;;19.20;10.60;;;;;;;0.57;98.42;97441.75;4939385;28;45588;-80
2021/01/03 09:16:24;;;;;;;16.38;9.43;;;;;;;0.45;98.36;97443.50;4922420;28;45312;-80
2021/01/03 09:18:58;;;;;;;16.23;9.80;;;;;;;0.66;98.54;97451.53;4938412;28;46971;-80
2021/01/03 09:21:24;;;;;;;14.88;9.98;;;;;;;0.73;98.19;97454.56;4934757;28;45321;-80
2021/01/03 09:23:58;;;;;;;13.68;9.43;;;;;;;0.92;96.89;97456.66;4939486;28;45311;-79
2021/01/03 09:26:33;;;;;;;13.63;9.05;;;;;;;0.63;96.57;97464.03;4925070;28;45593;-80
2021/01/03 09:29:14;;;;;;;16.27;9.73;;;;;;;0.70;97.19;97463.44;4939171;28;45347;-80
2021/01/03 09:31:54;;;;;;;13.27;8.98;;;;;;;0.69;97.57;97466.19;4921361;28;45849;-80
2021/01/03 09:34:32;;;;;;;15.75;9.98;;;;;;;0.84;97.19;97472.91;4954285;28;45440;-80
2021/01/03 09:37:14;;;;;;;13.88;9.07;;;;;;;0.84;97.03;97477.31;4951959;28;45567;-80
2021/01/03 09:40:11;;;;;;;14.50;10.15;;;;;;;0.93;96.39;97478.41;4938710;28;46386;-81
2021/01/03 09:42:39;;;;;;;16.35;10.35;;;;;;;0.98;95.90;97476.28;4937962;28;45388;-79
2021/01/03 09:45:20;;;;;;;13.95;9.10;;;;;;;0.99;95.45;97481.44;4939073;28;45449;-79
2021/01/03 09:47:48;;;;;;;13.55;8.75;;;;;;;0.93;95.65;97484.50;4938894;28;45723;-79
2021/01/03 09:50:25;;;;;;;11.82;8.02;;;;;;;1.13;94.75;97490.84;4938741;28;45244;-81
2021/01/03 09:53:14;;;;;;;11.32;7.28;;;;;;;0.78;95.51;97491.69;4938730;28;45476;-81
2021/01/03 09:55:45;;;;;;;12.98;7.85;;;;;;;1.04;95.24;97488.91;4913591;28;45675;-82
2021/01/03 09:58:11;;;;;;;12.55;8.55;;;;;;;1.01;95.59;97499.63;4937315;28;45295;-80
2021/01/03 10:00:55;;;;;;;11.98;8.68;;;;;;;0.99;95.95;97496.28;4937243;28;48249;-80
2021/01/03 10:03:42;;;;;;;12.23;8.02;;;;;;;0.52;98.12;97486.59;4922348;28;45535;-81
2021/01/03 10:06:14;;;;;;;12.35;8.20;;;;;;;0.48;97.98;97494.75;4934901;28;45495;-82
2021/01/03 10:08:39;;;;;;;12.43;7.43;;;;;;;0.28;99.28;97495.25;4937629;28;45588;-82
2021/01/03 10:11:05;;;;;;;11.00;7.32;;;;;;;0.31;99.08;97495.97;4919720;28;48084;-82
2021/01/03 10:13:31;;;;;;;10.80;6.65;;;;;;;0.14;99.60;97496.25;4936459;28;45375;-82
2021/01/03 10:15:57;;;;;;;11.70;7.43;;;;;;;0.44;98.66;97501.97;4936587;28;45393;-82
2021/01/03 10:18:41;;;;;;;11.48;6.78;;;;;;;0.38;98.87;97495.44;4934737;28;45391;-82
2021/01/03 10:21:29;;;;;;;9.27;6.50;;;;;;;0.66;98.13;97490.81;4932974;28;45611;-82
2021/01/03 10:24:01;;;;;;;11.57;6.97;;;;;;;0.71;97.09;97487.88;4924861;28;45515;-82
2021/01/03 10:26:31;;;;;;;10.18;5.90;;;;;;;0.49;97.35;97489.44;4935789;28;45435;-83
2021/01/03 10:28:57;;;;;;;11.65;6.85;;;;;;;0.38;97.64;97492.81;4936421;28;45438;-81
2021/01/03 10:31:40;;;;;;;11.43;7.10;;;;;;;0.61;97.46;97492.09;4937694;28;46693;-82
2021/01/03 10:34:05;;;;;;;9.57;6.40;;;;;;;0.23;98.44;97489.50;4924700;28;45365;-81
2021/01/03 10:36:30;;;;;;;10.88;7.00;;;;;;;0.55;98.31;97491.59;4937286;28;45470;-82
2021/01/03 10:38:56;;;;;;;13.25;7.20;;;;;;;0.86;97.21;97498.97;4937523;28;45488;-82
2021/01/03 10:41:29;;;;;;;10.02;6.38;;;;;;;0.54;97.14;97489.09;4937327;28;45564;-84
2021/01/03 10:43:54;;;;;;;9.90;6.50;;;;;;;0.57;96.78;97494.94;4937523;28;45794;-82
2021/01/03 10:46:19;;;;;;;9.93;6.18;;;;;;;0.55;98.20;97490.75;4932008;28;45589;-82
2021/01/03 10:48:45;;;;;;;10.70;6.88;;;;;;;0.66;97.04;97495.22;4932738;28;45405;-82
2021/01/03 10:51:10;;;;;;;10.27;6.65;;;;;;;0.62;97.20;97488.53;4915303;28;47016;-83
2021/01/03 10:53:35;;;;;;;10.65;6.82;;;;;;;0.79;98.15;97489.91;4913180;28;45560;-80
2021/01/03 10:56:03;;;;;;;10.85;6.90;;;;;;;0.78;96.67;97489.06;4905467;28;45465;-80
2021/01/03 10:58:28;;;;;;;9.57;6.40;;;;;;;0.92;96.13;97484.59;4916349;28;45631;-81
2021/01/03 11:00:54;;;;;;;9.98;6.85;;;;;;;0.84;96.13;97482.53;4916304;28;45414;-80
2021/01/03 11:03:19;;;;;;;13.52;9.73;;;;;;;1.11;95.67;97481.44;4917936;28;45541;-80
2021/01/03 11:05:45;;;;;;;10.52;6.90;;;;;;;0.75;97.11;97478.84;4914235;28;46012;-80
2021/01/03 11:08:10;;;;;;;10.55;8.00;;;;;;;1.01;95.65;97482.16;4916075;28;45674;-80
2021/01/03 11:10:35;;;;;;;11.82;8.18;;;;;;;1.03;95.48;97484.63;4917713;28;45386;-80
2021/01/03 11:13:01;;;;;;;9.95;6.55;;;;;;;1.08;95.06;97479.88;4920843;28;45640;-79
2021/01/03 11:15:26;;;;;;;10.70;6.75;;;;;;;0.97;95.94;97479.84;4919165;28;45517;-80
2021/01/03 11:17:52;;;;;;;10.00;6.60;;;;;;;0.94;95.74;97483.56;4917834;28;45572;-79
2021/01/03 11:20:18;;;;;;;9.32;7.00;;;;;;;0.94;95.28;97477.47;4931862;28;48115;-78
2021/01/03 11:22:43;;;;;;;10.40;6.60;;;;;;;0.93;95.27;97483.66;4920420;28;45786;-78
2021/01/03 11:25:11;;;;;;;11.25;7.40;;;;;;;0.75;95.32;97480.59;4919433;28;45446;-78
2021/01/03 11:27:36;;;;;;;13.00;7.78;;;;;;;1.17;95.31;97481.81;4918896;28;45561;-78
2021/01/03 11:30:05;;;;;;;11.63;7.45;;;;;;;1.11;94.18;97479.66;4920655;28;46561;-80
2021/01/03 11:32:30;;;;;;;10.80;7.00;;;;;;;0.69;95.48;97476.66;4922003;28;45324;-78
2021/01/03 11:34:56;;;;;;;10.82;7.40;;;;;;;0.77;96.96;97479.56;4921733;28;45477;-79
2021/01/03 11:37:26;;;;;;;11.30;7.78;;;;;;;0.76;96.17;97480.50;4921876;28;45307;-79
2021/01/03 11:39:52;;;;;;;12.77;8.25;;;;;;;1.06;96.62;97475.72;4919957;28;47064;-78
2021/01/03 11:42:32;;;;;;;13.57;8.00;;;;;;;1.07;96.37;97474.78;4921520;28;45228;-79
2021/01/03 11:44:58;;;;;;;11.63;7.95;;;;;;;1.08;94.77;97472.03;4921855;28;45427;-77
2021/01/03 11:47:25;;;;;;;12.43;8.52;;;;;;;1.09;94.81;97467.63;4921708;28;45489;-79
2021/01/03 11:49:51;;;;;;;14.20;8.95;;;;;;;1.27;94.63;97478.50;4939728;28;46071;-80
2021/01/03 11:52:17;;;;;;;13.32;9.10;;;;;;;0.62;96.51;97473.66;4923363;28;45534;-79